Capt Amer — 3FCQ3 — position and weather

sailwx.info

Track history (hours):
 
Tides and Currents Weather Stations Pressure Air Temp Water Temp Dewpoint Dewpoint Depression Visibility Wind Speed Wind Dir Waves Ship Positions

Capt Amer

Last reported at 2016-Aug-29 14:33 UTC. Time now 2016-Aug-29 14:43 UTC.
Position N 21°53' W 017°21'.

Length 113 m; draft 5.1 m.

Type: Cargo ship. MMSI: 373175000.

Date/timePositionNaut miles runAvg speedWind from/ knotsBaromVisibWave heightAir tempDewpointWater temp
2016-Aug-29 14:33N 21°53' W 017°21'10 9.3
2016-Aug-29 13:31N 21°44' W 017°26'10 9.5
2016-Aug-29 12:30N 21°36' W 017°31'10 9.5
2016-Aug-29 11:28N 21°27' W 017°35'9 9.4
2016-Aug-29 10:32N 21°19' W 017°40'10 9.1
2016-Aug-29 09:22N 21°10' W 017°46'53 9.0
2016-Aug-29 03:30N 20°20' W 018°03'  
2016-Aug-22 20:28N 05°12' W 004°01'5 5.9
2016-Aug-22 19:34N 05°18' W 004°01'1 0.4
2016-Aug-22 18:21N 05°18' W 004°01'0 0.0
2016-Aug-22 17:21N 05°18' W 004°01'0 0.0
2016-Aug-22 16:33N 05°18' W 004°01'0 0.0
2016-Aug-22 15:27N 05°18' W 004°01'0 0.0
2016-Aug-22 14:21N 05°18' W 004°01'0 0.0
2016-Aug-22 13:21N 05°18' W 004°01'0 0.0
2016-Aug-22 12:09N 05°18' W 004°01'0 0.0
2016-Aug-22 11:33N 05°18' W 004°01'0 0.0
2016-Aug-22 10:27N 05°18' W 004°01'0 0.0
2016-Aug-22 09:27N 05°18' W 004°01'0 0.0
2016-Aug-22 08:33N 05°18' W 004°01'0 0.0
2016-Aug-22 07:33N 05°18' W 004°01'0 0.0
2016-Aug-22 05:33N 05°18' W 004°01'0 0.0
2016-Aug-22 04:09N 05°18' W 004°01'0 0.0
2016-Aug-22 03:27N 05°18' W 004°01'0 0.0
2016-Aug-22 02:33N 05°18' W 004°01'0 0.0
2016-Aug-21 23:33N 05°18' W 004°01'0 0.0
2016-Aug-21 22:27N 05°18' W 004°01'0 0.0
2016-Aug-21 21:28N 05°18' W 004°01'2 1.7
2016-Aug-21 20:33N 05°17' W 004°02'5 5.0
2016-Aug-21 19:33N 05°12' W 003°59'3 0.8
2016-Aug-21 16:24N 05°13' W 004°02'0 0.0
2016-Aug-21 15:23N 05°13' W 004°02'0 0.0
2016-Aug-21 14:29N 05°13' W 004°02'0 0.0
2016-Aug-21 13:32N 05°13' W 004°02'0 0.0
2016-Aug-21 12:33N 05°13' W 004°02'0 0.0
2016-Aug-21 11:32N 05°13' W 004°02'0 0.0
2016-Aug-21 08:21N 05°13' W 004°02'0 0.6
2016-Aug-21 07:32N 05°13' W 004°02'1 0.6
2016-Aug-21 06:30N 05°13' W 004°02'0 0.0
2016-Aug-21 04:30N 05°13' W 004°02'0 0.0
2016-Aug-21 03:30N 05°13' W 004°02'0 0.0
2016-Aug-21 01:30N 05°13' W 004°02'0 0.0
2016-Aug-21 00:24N 05°13' W 004°02'0 0.0
2016-Aug-20 23:30N 05°13' W 004°02'0 0.0
2016-Aug-20 22:32N 05°13' W 004°02'0 0.0
2016-Aug-20 21:32N 05°13' W 004°02'0 0.0
2016-Aug-20 20:32N 05°13' W 004°02'0 0.0
2016-Aug-20 19:32N 05°13' W 004°02'0 0.0
2016-Aug-20 18:11N 05°13' W 004°02'2 2.8
2016-Aug-20 17:33N 05°12' W 004°03'  
Track history (hours):
 
Tides and Currents Weather Stations Pressure Air Temp Water Temp Dewpoint Dewpoint Depression Visibility Wind Speed Wind Dir Waves Ship Positions

Capt Amer

Last reported at 2016-Aug-29 14:33 UTC. Time now 2016-Aug-29 14:43 UTC.
Position N 21°53' W 017°21'.

Length 113 m; draft 5.1 m.

Type: Cargo ship. MMSI: 373175000.

Date/timePositionNaut miles runAvg speedWind from/ knotsBaromVisibWave heightAir tempDewpointWater temp
2016-Aug-29 14:33N 21°53' W 017°21'10 9.3
2016-Aug-29 13:31N 21°44' W 017°26'10 9.5
2016-Aug-29 12:30N 21°36' W 017°31'10 9.5
2016-Aug-29 11:28N 21°27' W 017°35'9 9.4
2016-Aug-29 10:32N 21°19' W 017°40'10 9.1
2016-Aug-29 09:22N 21°10' W 017°46'53 9.0
2016-Aug-29 03:30N 20°20' W 018°03'  
2016-Aug-22 20:28N 05°12' W 004°01'5 5.9
2016-Aug-22 19:34N 05°18' W 004°01'1 0.4
2016-Aug-22 18:21N 05°18' W 004°01'0 0.0
2016-Aug-22 17:21N 05°18' W 004°01'0 0.0
2016-Aug-22 16:33N 05°18' W 004°01'0 0.0
2016-Aug-22 15:27N 05°18' W 004°01'0 0.0
2016-Aug-22 14:21N 05°18' W 004°01'0 0.0
2016-Aug-22 13:21N 05°18' W 004°01'0 0.0
2016-Aug-22 12:09N 05°18' W 004°01'0 0.0
2016-Aug-22 11:33N 05°18' W 004°01'0 0.0
2016-Aug-22 10:27N 05°18' W 004°01'0 0.0
2016-Aug-22 09:27N 05°18' W 004°01'0 0.0
2016-Aug-22 08:33N 05°18' W 004°01'0 0.0
2016-Aug-22 07:33N 05°18' W 004°01'0 0.0
2016-Aug-22 05:33N 05°18' W 004°01'0 0.0
2016-Aug-22 04:09N 05°18' W 004°01'0 0.0
2016-Aug-22 03:27N 05°18' W 004°01'0 0.0
2016-Aug-22 02:33N 05°18' W 004°01'0 0.0
2016-Aug-21 23:33N 05°18' W 004°01'0 0.0
2016-Aug-21 22:27N 05°18' W 004°01'0 0.0
2016-Aug-21 21:28N 05°18' W 004°01'2 1.7
2016-Aug-21 20:33N 05°17' W 004°02'5 5.0
2016-Aug-21 19:33N 05°12' W 003°59'3 0.8
2016-Aug-21 16:24N 05°13' W 004°02'0 0.0
2016-Aug-21 15:23N 05°13' W 004°02'0 0.0
2016-Aug-21 14:29N 05°13' W 004°02'0 0.0
2016-Aug-21 13:32N 05°13' W 004°02'0 0.0
2016-Aug-21 12:33N 05°13' W 004°02'0 0.0
2016-Aug-21 11:32N 05°13' W 004°02'0 0.0
2016-Aug-21 08:21N 05°13' W 004°02'0 0.6
2016-Aug-21 07:32N 05°13' W 004°02'1 0.6
2016-Aug-21 06:30N 05°13' W 004°02'0 0.0
2016-Aug-21 04:30N 05°13' W 004°02'0 0.0
2016-Aug-21 03:30N 05°13' W 004°02'0 0.0
2016-Aug-21 01:30N 05°13' W 004°02'0 0.0
2016-Aug-21 00:24N 05°13' W 004°02'0 0.0
2016-Aug-20 23:30N 05°13' W 004°02'0 0.0
2016-Aug-20 22:32N 05°13' W 004°02'0 0.0
2016-Aug-20 21:32N 05°13' W 004°02'0 0.0
2016-Aug-20 20:32N 05°13' W 004°02'0 0.0
2016-Aug-20 19:32N 05°13' W 004°02'0 0.0
2016-Aug-20 18:11N 05°13' W 004°02'2 2.8
2016-Aug-20 17:33N 05°12' W 004°03'  

Dump ship's entire track history